Artas, South Dakota
Current Conditions -  °F | °C
As of 9:52 PM on Wednesday 22 Oct 2014 (Local Time) from KMBG Reporting Station
Clear Clear  
Wind Chill: 46°   Ceiling: Unl
Heat Index: 48°   Visibility: 10mi
Dew Point: 37°   Wind: 5mph
Humidity: 66%   Direction: 310°NW
Pressure: 29.93"   Gusts: NA
Location:  45.7737°N, 99.5895°W
Report Text: KMBG 230252Z AUTO 31004KT 10SM CLR 09/03 A2993 RMK AO2 SLP139 T00890028 51012
Loading
Personal Weather Stations






























Interactive Weather Map
Tropical Storm Tracking
New forecast layout! Learn more

10-Day Weather Forecast

Advertisements
Track Severe Weather on mobile